createdAt,value
2023-07-04T00:02:05.030Z,4.45
2023-07-04T00:04:32.853Z,6.10
2023-07-04T00:07:01.508Z,4.53
2023-07-04T00:09:28.297Z,5.85
2023-07-04T00:11:55.052Z,4.47
2023-07-04T00:14:21.977Z,4.32
2023-07-04T00:16:48.956Z,4.75
2023-07-04T00:19:15.772Z,4.63
2023-07-04T00:21:42.582Z,4.30
2023-07-04T00:24:11.208Z,4.38
2023-07-04T00:26:37.921Z,4.57
2023-07-04T00:29:05.160Z,4.22
2023-07-04T00:31:33.508Z,4.80
2023-07-04T00:34:00.660Z,5.25
2023-07-04T00:36:30.677Z,5.15
2023-07-04T00:38:58.094Z,4.53
2023-07-04T00:41:28.155Z,6.25
2023-07-04T00:44:01.582Z,5.07
2023-07-04T00:46:41.074Z,5.15
2023-07-04T00:49:24.580Z,4.65
2023-07-04T00:52:05.336Z,4.47
2023-07-04T00:54:37.086Z,5.28
2023-07-04T00:57:07.569Z,4.82
2023-07-04T00:59:45.010Z,5.35
2023-07-04T01:02:14.317Z,4.47
2023-07-04T01:04:41.618Z,4.88
2023-07-04T01:07:41.721Z,4.60
2023-07-04T01:10:18.011Z,3.95
2023-07-04T01:12:46.587Z,4.82
2023-07-04T01:15:13.360Z,4.32
2023-07-04T01:17:43.343Z,4.72
2023-07-04T01:20:13.297Z,4.00
2023-07-04T01:22:51.175Z,4.43
2023-07-04T01:25:31.584Z,4.22
2023-07-04T01:28:04.337Z,3.83
2023-07-04T01:30:32.700Z,4.32
2023-07-04T01:33:00.524Z,4.22
2023-07-04T01:35:28.517Z,3.72
2023-07-04T01:37:55.958Z,4.10
2023-07-04T01:40:23.223Z,4.10
2023-07-04T01:42:50.292Z,4.28
2023-07-04T01:45:18.104Z,4.03
2023-07-04T01:47:45.958Z,4.00
2023-07-04T01:50:14.016Z,3.67
2023-07-04T01:52:42.010Z,3.60
2023-07-04T01:55:10.087Z,4.15
2023-07-04T01:57:37.559Z,3.38
2023-07-04T02:00:06.945Z,4.07
2023-07-04T02:02:34.271Z,2.70
2023-07-04T02:05:01.489Z,3.58
2023-07-04T02:07:28.584Z,3.75
2023-07-04T02:09:55.648Z,2.88
2023-07-04T02:12:22.712Z,3.72
2023-07-04T02:14:50.061Z,3.92
2023-07-04T02:17:17.225Z,3.38
2023-07-04T02:19:44.368Z,3.20
2023-07-04T02:22:11.468Z,3.15
2023-07-04T02:24:38.509Z,3.60
2023-07-04T02:27:05.700Z,3.83
2023-07-04T02:29:32.819Z,3.67
2023-07-04T02:31:59.516Z,3.15
2023-07-04T02:34:26.585Z,3.58
2023-07-04T02:36:53.234Z,3.83
2023-07-04T02:39:19.916Z,3.58
2023-07-04T02:41:46.595Z,4.30
2023-07-04T02:44:13.274Z,3.30
2023-07-04T02:46:39.998Z,3.70
2023-07-04T02:49:06.884Z,3.35
2023-07-04T02:51:34.098Z,3.38
2023-07-04T02:54:00.946Z,2.75
2023-07-04T02:56:27.839Z,3.78
2023-07-04T02:58:54.487Z,3.88
2023-07-04T03:01:21.223Z,3.17
2023-07-04T03:03:48.085Z,3.17
2023-07-04T03:06:14.893Z,3.42
2023-07-04T03:08:41.652Z,3.67
2023-07-04T03:11:08.320Z,3.85
2023-07-04T03:13:36.042Z,3.22
2023-07-04T03:16:02.805Z,3.25
2023-07-04T03:18:29.616Z,2.95
2023-07-04T03:20:56.749Z,3.72
2023-07-04T03:23:23.913Z,4.05
2023-07-04T03:25:50.655Z,3.08
2023-07-04T03:28:17.491Z,3.83
2023-07-04T03:30:44.276Z,3.70
2023-07-04T03:33:11.131Z,3.72
2023-07-04T03:35:53.138Z,4.07
2023-07-04T03:38:24.997Z,3.88
2023-07-04T03:40:51.932Z,3.95
2023-07-04T03:43:18.896Z,3.60
2023-07-04T03:45:46.704Z,3.75
2023-07-04T03:48:13.594Z,3.95
2023-07-04T03:50:40.439Z,3.70
2023-07-04T03:53:07.108Z,3.40
2023-07-04T03:55:33.810Z,3.67
2023-07-04T03:58:00.500Z,3.53
2023-07-04T04:00:27.689Z,3.85
2023-07-04T04:02:54.592Z,3.80
2023-07-04T04:05:21.523Z,3.90
2023-07-04T04:07:51.299Z,3.63
2023-07-04T04:10:19.096Z,4.20
2023-07-04T04:12:46.013Z,4.00
2023-07-04T04:15:13.197Z,3.45
2023-07-04T04:17:39.942Z,3.65
2023-07-04T04:20:07.931Z,3.55
2023-07-04T04:22:35.190Z,3.97
2023-07-04T04:25:02.071Z,3.20
2023-07-04T04:27:32.030Z,2.80
2023-07-04T04:29:58.785Z,3.08
2023-07-04T04:32:25.519Z,3.10
2023-07-04T04:34:53.444Z,2.85
2023-07-04T04:37:20.167Z,3.30
2023-07-04T04:39:46.909Z,3.33
2023-07-04T04:42:15.440Z,3.05
2023-07-04T04:44:42.979Z,3.70
2023-07-04T04:47:09.815Z,2.65
2023-07-04T04:49:36.630Z,3.13
2023-07-04T04:52:03.570Z,2.67
2023-07-04T04:54:31.234Z,2.78
2023-07-04T04:56:58.006Z,2.92
2023-07-04T04:59:24.754Z,3.05
2023-07-04T05:01:51.585Z,2.90
2023-07-04T05:04:18.535Z,2.28
2023-07-04T05:06:45.189Z,2.50
2023-07-04T05:09:11.836Z,3.13
2023-07-04T05:11:38.583Z,2.60
2023-07-04T05:14:05.422Z,2.60
2023-07-04T05:16:32.298Z,2.33
2023-07-04T05:18:59.024Z,2.40
2023-07-04T05:21:26.400Z,2.22
2023-07-04T05:23:53.928Z,2.42
2023-07-04T05:26:25.706Z,1.98
2023-07-04T05:28:53.641Z,1.80
2023-07-04T05:31:26.439Z,2.50
2023-07-04T05:33:54.407Z,2.40
2023-07-04T05:36:21.504Z,2.47
2023-07-04T05:38:48.843Z,2.00
2023-07-04T05:41:16.992Z,2.53
2023-07-04T05:43:44.403Z,2.28
2023-07-04T05:46:12.479Z,2.05
2023-07-04T05:48:40.129Z,2.00
2023-07-04T05:51:09.836Z,2.15
2023-07-04T05:53:38.861Z,2.40
2023-07-04T05:56:13.878Z,2.00
2023-07-04T05:58:42.562Z,1.88
2023-07-04T06:01:15.145Z,2.20
2023-07-04T06:03:43.215Z,2.25
2023-07-04T06:06:17.045Z,3.08
2023-07-04T06:08:44.135Z,2.63
2023-07-04T06:11:11.173Z,2.50
2023-07-04T06:13:38.276Z,2.22
2023-07-04T06:16:05.835Z,2.10
2023-07-04T06:18:32.709Z,1.95
2023-07-04T06:21:10.253Z,1.83
2023-07-04T06:23:37.576Z,2.15
2023-07-04T06:26:06.305Z,2.00
2023-07-04T06:28:34.026Z,1.73
2023-07-04T06:31:13.854Z,1.73
2023-07-04T06:33:42.167Z,2.00
2023-07-04T06:36:13.901Z,2.10
2023-07-04T06:38:40.943Z,2.05
2023-07-04T06:41:11.143Z,2.25
2023-07-04T06:43:39.563Z,2.08
2023-07-04T06:46:06.639Z,1.83
2023-07-04T06:48:33.690Z,1.95
2023-07-04T06:51:03.251Z,1.95
2023-07-04T06:53:31.605Z,1.80
2023-07-04T06:56:09.052Z,2.45
2023-07-04T06:58:38.716Z,2.03
2023-07-04T07:01:05.919Z,1.80
2023-07-04T07:03:33.530Z,1.90
2023-07-04T07:06:05.469Z,2.30
2023-07-04T07:08:32.998Z,2.05
2023-07-04T07:11:07.501Z,1.40
2023-07-04T07:13:35.059Z,2.17
2023-07-04T07:16:14.491Z,2.17
2023-07-04T07:18:43.210Z,2.55
2023-07-04T07:21:11.891Z,1.73
2023-07-04T07:23:39.486Z,1.85
2023-07-04T07:26:09.277Z,1.90
2023-07-04T07:28:41.045Z,1.63
2023-07-04T07:31:10.301Z,1.80
2023-07-04T07:33:38.949Z,1.50
2023-07-04T07:36:19.289Z,2.00
2023-07-04T07:38:45.992Z,2.05
2023-07-04T07:41:13.159Z,1.88
2023-07-04T07:43:41.558Z,1.75
2023-07-04T07:46:10.821Z,1.70
2023-07-04T07:48:38.209Z,1.65
2023-07-04T07:51:06.312Z,1.80
2023-07-04T07:53:33.174Z,2.45
2023-07-04T07:55:59.963Z,2.25
2023-07-04T07:58:26.651Z,1.95
2023-07-04T08:00:54.696Z,1.77
2023-07-04T08:03:21.627Z,1.75
2023-07-04T08:05:48.476Z,2.08
2023-07-04T08:08:15.156Z,2.08
2023-07-04T08:10:43.689Z,2.28
2023-07-04T08:13:11.899Z,1.83
2023-07-04T08:15:38.869Z,2.35
2023-07-04T08:18:09.605Z,1.98
2023-07-04T08:20:37.020Z,3.05
2023-07-04T08:23:04.166Z,1.95
2023-07-04T08:25:30.860Z,2.35
2023-07-04T08:27:58.171Z,2.05
2023-07-04T08:30:24.981Z,1.75
2023-07-04T08:32:53.940Z,1.92
2023-07-04T08:35:21.189Z,2.20
2023-07-04T08:37:48.354Z,1.65
2023-07-04T08:40:16.805Z,2.65
2023-07-04T08:42:46.383Z,1.92
2023-07-04T08:45:18.802Z,2.38
2023-07-04T08:47:45.906Z,2.03
2023-07-04T08:50:13.071Z,1.90
2023-07-04T08:52:54.150Z,1.83
2023-07-04T08:55:21.590Z,2.10
2023-07-04T08:57:59.254Z,2.22
2023-07-04T09:00:33.715Z,1.95
2023-07-04T09:03:11.251Z,2.17
2023-07-04T09:05:57.195Z,2.03
2023-07-04T09:08:30.479Z,1.60
2023-07-04T09:11:03.462Z,2.05
2023-07-04T09:13:38.566Z,2.60
2023-07-04T09:16:20.254Z,1.73
2023-07-04T09:18:53.646Z,1.90
2023-07-04T09:21:21.978Z,2.00
2023-07-04T09:23:50.310Z,2.25
2023-07-04T09:26:19.862Z,2.83
2023-07-04T09:28:48.188Z,2.50
2023-07-04T09:31:19.338Z,2.35
2023-07-04T09:33:49.197Z,2.30
2023-07-04T09:36:18.451Z,2.20
2023-07-04T09:38:53.110Z,2.47
2023-07-04T09:41:20.441Z,2.88
2023-07-04T09:43:47.677Z,2.60
2023-07-04T09:46:19.568Z,2.35
2023-07-04T09:48:48.576Z,2.58
2023-07-04T09:51:27.499Z,2.63
2023-07-04T09:54:10.995Z,2.72
2023-07-04T09:56:38.204Z,2.42
2023-07-04T09:59:10.684Z,2.47
2023-07-04T10:01:49.709Z,2.42
2023-07-04T10:04:28.320Z,2.70
2023-07-04T10:06:56.363Z,2.30
2023-07-04T10:09:23.903Z,3.05
2023-07-04T10:11:52.084Z,2.35
2023-07-04T10:14:32.649Z,2.75
2023-07-04T10:17:08.448Z,2.85
2023-07-04T10:19:40.712Z,2.65
2023-07-04T10:22:07.876Z,2.45
2023-07-04T10:24:35.635Z,2.60
2023-07-04T10:27:12.663Z,2.83
2023-07-04T10:29:48.229Z,2.10
2023-07-04T10:32:16.360Z,2.45
2023-07-04T10:34:50.966Z,2.75
2023-07-04T10:37:30.525Z,2.22
2023-07-04T10:39:59.499Z,2.33
2023-07-04T10:42:45.994Z,2.33
2023-07-04T10:45:16.308Z,2.67
2023-07-04T10:47:44.596Z,2.78
2023-07-04T10:50:19.803Z,2.55
2023-07-04T10:52:49.862Z,2.60
2023-07-04T10:55:23.299Z,2.90
2023-07-04T10:58:00.636Z,3.10
2023-07-04T11:00:44.103Z,2.30
2023-07-04T11:03:22.549Z,2.83
2023-07-04T11:05:53.664Z,3.17
2023-07-04T11:08:22.739Z,2.97
2023-07-04T11:10:59.845Z,2.85
2023-07-04T11:13:27.488Z,3.00
2023-07-04T11:16:04.487Z,3.70
2023-07-04T11:18:39.471Z,2.88
2023-07-04T11:21:13.809Z,2.47
2023-07-04T11:23:47.060Z,2.80
2023-07-04T11:26:14.356Z,2.97
2023-07-04T11:28:42.301Z,2.80
2023-07-04T11:31:17.661Z,2.33
2023-07-04T11:33:53.693Z,2.50
2023-07-04T11:36:50.674Z,3.03
2023-07-04T11:39:31.442Z,2.53
2023-07-04T11:41:59.224Z,2.80
2023-07-04T11:44:31.694Z,3.13
2023-07-04T11:47:02.174Z,3.55
2023-07-04T11:49:30.884Z,2.70
2023-07-04T11:52:20.620Z,2.60
2023-07-04T11:55:18.670Z,2.92
2023-07-04T11:58:00.414Z,2.78
2023-07-04T12:00:29.900Z,3.22
2023-07-04T12:02:56.791Z,2.63
2023-07-04T12:05:32.578Z,2.88
2023-07-04T12:08:05.564Z,2.78
2023-07-04T12:10:32.676Z,2.83
2023-07-04T12:13:02.471Z,2.70
2023-07-04T12:15:32.500Z,2.70
2023-07-04T12:18:03.102Z,2.42
2023-07-04T12:20:32.020Z,2.22
2023-07-04T12:23:00.514Z,2.50
2023-07-04T12:25:29.273Z,2.00
2023-07-04T12:28:01.306Z,1.70
2023-07-04T12:30:38.733Z,2.28
2023-07-04T12:33:08.064Z,2.47
2023-07-04T12:35:38.980Z,3.13
2023-07-04T12:38:07.586Z,2.55
2023-07-04T12:40:35.203Z,2.50
2023-07-04T12:45:34.525Z,2.10
2023-07-04T12:50:34.056Z,2.20
2023-07-04T12:53:02.269Z,2.67
2023-07-04T12:55:34.706Z,2.17
2023-07-04T12:58:03.023Z,2.25
2023-07-04T13:00:31.448Z,2.08
2023-07-04T13:03:11.957Z,2.30
2023-07-04T13:05:47.246Z,2.05
2023-07-04T13:08:34.202Z,2.00
2023-07-04T13:11:01.877Z,2.08
2023-07-04T13:13:37.650Z,1.60
2023-07-04T13:16:23.496Z,2.15
2023-07-04T13:18:51.021Z,2.30
2023-07-04T13:21:29.237Z,2.03
2023-07-04T13:26:27.916Z,1.98
2023-07-04T13:30:22.648Z,1.77
2023-07-04T13:34:19.254Z,2.30
2023-07-04T13:36:48.029Z,1.63
2023-07-04T13:41:48.228Z,1.50
2023-07-04T13:45:12.767Z,2.40
2023-07-04T13:47:03.939Z,2.53
2023-07-04T13:49:31.699Z,2.22
2023-07-04T13:51:59.279Z,2.25
2023-07-04T13:54:26.480Z,2.40
2023-07-04T13:56:53.524Z,2.38
2023-07-04T13:59:21.436Z,2.25
2023-07-04T14:06:52.961Z,1.92
2023-07-04T14:09:20.744Z,2.42
2023-07-04T14:11:48.085Z,2.60
2023-07-04T14:17:12.247Z,2.55
2023-07-04T14:22:02.682Z,2.83
2023-07-04T14:24:29.868Z,2.53
2023-07-04T14:26:56.938Z,2.47
2023-07-04T14:29:24.112Z,2.40
2023-07-04T14:31:51.448Z,2.45
2023-07-04T14:34:18.611Z,3.20
2023-07-04T14:36:45.762Z,2.53
2023-07-04T14:39:13.318Z,2.47
2023-07-04T14:44:10.480Z,2.17
2023-07-04T14:46:37.629Z,2.53
2023-07-04T14:49:04.801Z,2.22
2023-07-04T14:51:32.773Z,2.13
2023-07-04T14:53:59.908Z,2.47
2023-07-04T14:56:37.341Z,2.90
2023-07-04T14:59:14.106Z,2.55
2023-07-04T15:01:41.155Z,1.65
2023-07-04T15:04:08.276Z,2.00
2023-07-04T15:06:35.833Z,2.20
2023-07-04T15:09:03.676Z,2.22
2023-07-04T15:11:30.768Z,2.20
2023-07-04T15:13:58.119Z,2.50
2023-07-04T15:16:25.385Z,2.00
2023-07-04T15:18:52.645Z,2.08
2023-07-04T15:21:19.747Z,2.33
2023-07-04T15:23:46.906Z,1.67
2023-07-04T15:26:26.041Z,1.70
2023-07-04T15:28:54.032Z,1.90
2023-07-04T15:31:21.549Z,2.38
2023-07-04T15:33:49.961Z,1.98
2023-07-04T15:36:17.308Z,2.25
2023-07-04T15:38:44.431Z,1.75
2023-07-04T15:41:14.570Z,2.45
2023-07-04T15:43:41.746Z,2.33
2023-07-04T15:46:12.129Z,2.88
2023-07-04T15:48:40.227Z,2.08
2023-07-04T15:51:08.303Z,2.28
2023-07-04T15:53:35.784Z,2.10
2023-07-04T15:56:06.834Z,2.08
2023-07-04T15:58:34.225Z,2.30
2023-07-04T16:01:02.374Z,1.85
2023-07-04T16:03:30.566Z,2.22
2023-07-04T16:05:59.087Z,2.00
2023-07-04T16:08:28.183Z,2.40
2023-07-04T16:10:56.271Z,2.20
2023-07-04T16:13:23.650Z,2.80
2023-07-04T16:15:50.889Z,2.40
2023-07-04T16:18:18.148Z,2.20
2023-07-04T16:20:46.151Z,2.65
2023-07-04T16:23:13.426Z,2.85
2023-07-04T16:25:44.298Z,4.78
2023-07-04T16:28:12.189Z,2.63
2023-07-04T16:30:39.385Z,2.28
2023-07-04T16:33:06.680Z,2.22
2023-07-04T16:35:33.998Z,2.72
2023-07-04T16:38:01.100Z,3.00
2023-07-04T16:40:28.365Z,1.77
2023-07-04T16:42:55.445Z,2.85
2023-07-04T16:45:22.526Z,2.47
2023-07-04T16:47:49.661Z,2.58
2023-07-04T16:50:29.693Z,2.95
2023-07-04T16:52:59.134Z,2.20
2023-07-04T16:55:26.409Z,2.30
2023-07-04T16:57:53.509Z,2.10
2023-07-04T17:00:21.032Z,2.30
2023-07-04T17:02:48.253Z,2.33
2023-07-04T17:05:15.463Z,1.90
2023-07-04T17:07:42.602Z,1.88
2023-07-04T17:10:10.404Z,2.80
2023-07-04T17:12:37.852Z,2.38
2023-07-04T17:15:05.268Z,2.10
2023-07-04T17:17:32.428Z,1.90
2023-07-04T17:19:59.718Z,2.05
2023-07-04T17:22:26.875Z,2.38
2023-07-04T17:25:11.056Z,1.98
2023-07-04T17:27:39.864Z,2.45
2023-07-04T17:30:07.326Z,2.10
2023-07-04T17:32:34.586Z,2.20
2023-07-04T17:35:01.723Z,1.90
2023-07-04T17:37:28.811Z,1.48
2023-07-04T17:39:55.951Z,1.55
2023-07-04T17:42:24.033Z,1.95
2023-07-04T17:44:51.192Z,1.80
2023-07-04T17:47:19.218Z,2.05
2023-07-04T17:49:46.583Z,1.77
2023-07-04T17:52:14.333Z,2.20
2023-07-04T17:54:41.603Z,2.50
2023-07-04T17:57:25.465Z,2.28
2023-07-04T17:59:54.747Z,1.88
2023-07-04T18:02:22.124Z,2.42
2023-07-04T18:04:49.575Z,2.15
2023-07-04T18:07:16.756Z,2.50
2023-07-04T18:09:50.793Z,2.25
2023-07-04T18:12:19.833Z,3.40
2023-07-04T18:14:46.986Z,2.55
2023-07-04T18:17:14.081Z,2.47
2023-07-04T18:19:41.608Z,2.40
2023-07-04T18:22:10.580Z,2.25
2023-07-04T18:24:38.505Z,2.22
2023-07-04T18:27:05.717Z,2.70
2023-07-04T18:29:32.378Z,2.08
2023-07-04T18:32:00.020Z,1.85
2023-07-04T18:34:27.601Z,2.10
2023-07-04T18:36:56.365Z,1.83
2023-07-04T18:39:23.610Z,1.77
2023-07-04T18:41:50.267Z,1.40
2023-07-04T18:44:17.527Z,1.50
2023-07-04T18:46:45.435Z,1.55
2023-07-04T18:49:17.028Z,1.98
2023-07-04T18:51:44.577Z,1.58
2023-07-04T18:54:15.815Z,1.23
2023-07-04T18:56:43.535Z,2.00
2023-07-04T18:59:12.067Z,1.70
2023-07-04T19:01:39.275Z,3.80
2023-07-04T19:04:06.166Z,2.50
2023-07-04T19:06:35.490Z,1.63
2023-07-04T19:09:02.856Z,1.45
2023-07-04T19:11:30.849Z,1.70
2023-07-04T19:14:06.049Z,1.35
2023-07-04T19:16:38.654Z,1.75
2023-07-04T19:19:06.546Z,2.20
2023-07-04T19:21:33.906Z,1.20
2023-07-04T19:24:01.210Z,1.73
2023-07-04T19:26:28.918Z,1.58
2023-07-04T19:28:55.991Z,1.77
2023-07-04T19:31:22.733Z,2.20
2023-07-04T19:33:49.477Z,1.55
2023-07-04T19:36:16.677Z,1.65
2023-07-04T19:38:43.408Z,1.25
2023-07-04T19:41:10.162Z,1.27
2023-07-04T19:43:36.999Z,1.15
2023-07-04T19:46:06.701Z,0.90
2023-07-04T19:48:35.660Z,1.40
2023-07-04T19:51:05.767Z,1.15
2023-07-04T19:53:33.754Z,1.25
2023-07-04T19:56:06.725Z,1.17
2023-07-04T19:58:34.001Z,1.70
2023-07-04T20:01:11.668Z,1.15
2023-07-04T20:03:39.602Z,0.98
2023-07-04T20:06:08.574Z,1.80
2023-07-04T20:08:36.183Z,1.13
2023-07-04T20:11:03.685Z,1.20
2023-07-04T20:13:31.677Z,1.40
2023-07-04T20:16:00.502Z,1.23
2023-07-04T20:18:27.812Z,1.30
2023-07-04T20:20:58.448Z,1.60
2023-07-04T20:23:25.640Z,1.40
2023-07-04T20:25:54.685Z,1.15
2023-07-04T20:28:23.484Z,1.50
2023-07-04T20:30:56.813Z,1.63
2023-07-04T20:33:25.442Z,1.90
2023-07-04T20:35:52.877Z,1.38
2023-07-04T20:38:20.550Z,1.75
2023-07-04T20:40:47.519Z,1.50
2023-07-04T20:43:16.529Z,1.77
2023-07-04T20:45:44.197Z,1.73
2023-07-04T20:48:12.455Z,1.38
2023-07-04T20:50:43.331Z,1.58
2023-07-04T20:53:10.506Z,1.52
2023-07-04T20:55:40.468Z,1.63
2023-07-04T20:58:08.031Z,2.00
2023-07-04T21:00:35.506Z,1.33
2023-07-04T21:03:02.225Z,2.00
2023-07-04T21:05:29.353Z,1.40
2023-07-04T21:07:56.763Z,1.50
2023-07-04T21:10:27.701Z,1.67
2023-07-04T21:12:58.182Z,1.50
2023-07-04T21:15:27.165Z,1.85
2023-07-04T21:17:55.300Z,1.50
2023-07-04T21:20:22.754Z,2.38
2023-07-04T21:22:50.080Z,1.70
2023-07-04T21:25:17.299Z,1.90
2023-07-04T21:27:44.523Z,1.60
2023-07-04T21:30:11.917Z,1.55
2023-07-04T21:32:39.112Z,1.60
2023-07-04T21:35:06.849Z,1.67
2023-07-04T21:37:34.134Z,1.73
2023-07-04T21:40:01.422Z,1.75
2023-07-04T21:42:28.633Z,2.13
2023-07-04T21:44:55.468Z,1.75
2023-07-04T21:47:22.191Z,1.75
2023-07-04T21:49:50.076Z,1.77
2023-07-04T21:52:17.464Z,1.60
2023-07-04T21:54:45.486Z,1.77
2023-07-04T21:57:12.696Z,1.60
2023-07-04T21:59:39.617Z,1.70
2023-07-04T22:02:06.558Z,1.65
2023-07-04T22:04:33.292Z,1.83
2023-07-04T22:07:00.021Z,1.92
2023-07-04T22:09:26.967Z,1.98
2023-07-04T22:11:53.857Z,2.03
2023-07-04T22:14:35.773Z,1.60
2023-07-04T22:17:05.226Z,2.58
2023-07-04T22:19:32.476Z,1.90
2023-07-04T22:21:59.730Z,1.73
2023-07-04T22:24:27.816Z,1.70
2023-07-04T22:26:55.079Z,1.80
2023-07-04T22:29:22.208Z,1.63
2023-07-04T22:31:49.301Z,1.48
2023-07-04T22:34:16.385Z,1.52
2023-07-04T22:36:43.834Z,1.92
2023-07-04T22:39:11.127Z,2.00
2023-07-04T22:41:38.423Z,1.58
2023-07-04T22:44:06.031Z,1.55
2023-07-04T22:46:33.419Z,1.75
2023-07-04T22:49:00.843Z,2.10
2023-07-04T22:51:28.116Z,1.70
2023-07-04T22:53:55.225Z,1.80
2023-07-04T22:56:23.905Z,2.08
2023-07-04T22:58:51.030Z,1.67
2023-07-04T23:01:20.417Z,1.70
2023-07-04T23:03:48.887Z,1.35
2023-07-04T23:06:16.411Z,1.52
2023-07-04T23:08:44.486Z,1.45
2023-07-04T23:11:12.172Z,1.50
2023-07-04T23:13:39.513Z,1.50
2023-07-04T23:16:10.965Z,1.73
2023-07-04T23:18:38.721Z,2.00
2023-07-04T23:21:06.132Z,2.05
2023-07-04T23:23:33.254Z,2.05
2023-07-04T23:26:00.456Z,2.40
2023-07-04T23:28:27.406Z,2.22
2023-07-04T23:30:54.527Z,1.45
2023-07-04T23:33:21.754Z,1.63
2023-07-04T23:35:58.978Z,1.58
2023-07-04T23:38:26.527Z,1.73
2023-07-04T23:40:53.625Z,1.30
2023-07-04T23:43:20.807Z,1.85
2023-07-04T23:45:47.942Z,1.77
2023-07-04T23:48:14.669Z,1.65
2023-07-04T23:50:42.015Z,1.42
2023-07-04T23:53:08.911Z,1.75
2023-07-04T23:55:36.385Z,1.50
2023-07-04T23:58:03.965Z,1.30
